Hakuhomaru — JJ4011 — position and weather

sailwx.info

Track history (hours):
 
Tides and Currents Weather Stations Pressure Air Temp Water Temp Dewpoint Dewpoint Depression Visibility Wind Speed Wind Dir Waves Ship Positions

Hakuhomaru

Last reported at 2014-Aug-31 05:33 UTC. Time now 2014-Sep-01 11:19 UTC.
Position N 34°41' E 135°12'.

Length 38 m; draft 3.3 m.

Type: Tug. MMSI: 431401584.

Date/timePositionNaut miles runAvg speedWind from/ knotsBaromVisibWave heightAir tempDewpointWater temp
2014-Aug-31 05:33N 34°41' E 135°12'0 0.0
2014-Aug-31 04:33N 34°41' E 135°12'0 0.0
2014-Aug-31 03:33N 34°41' E 135°12'0 0.0
2014-Aug-31 02:33N 34°41' E 135°12'0 0.0
2014-Aug-31 01:33N 34°41' E 135°12'2 2.4
2014-Aug-31 00:34N 34°39' E 135°15'2 1.6
2014-Aug-30 23:33N 34°39' E 135°17'4 3.9
2014-Aug-30 22:33N 34°41' E 135°12'0 0.1
2014-Aug-30 21:33N 34°41' E 135°12'2 0.2
2014-Aug-30 09:33N 34°41' E 135°15'0 0.2
2014-Aug-30 08:33N 34°41' E 135°14'0 0.0
2014-Aug-30 07:33N 34°41' E 135°14'0 0.0
2014-Aug-30 06:33N 34°41' E 135°14'1 1.4
2014-Aug-30 05:33N 34°40' E 135°14'2 1.7
2014-Aug-30 04:33N 34°41' E 135°12'0 0.0
2014-Aug-30 03:33N 34°41' E 135°12'0 0.0
2014-Aug-30 02:33N 34°41' E 135°12'0 0.0
2014-Aug-30 01:33N 34°41' E 135°12'0 0.0
2014-Aug-30 00:33N 34°41' E 135°12'0 0.0
2014-Aug-29 23:33N 34°41' E 135°12'4 3.9
2014-Aug-29 22:33N 34°41' E 135°17'3 2.5
2014-Aug-29 21:33N 34°41' E 135°14'1 1.4
2014-Aug-29 20:33N 34°41' E 135°12'0 0.0
2014-Aug-29 09:16N 34°41' E 135°12'2 2.2
2014-Aug-29 08:33N 34°40' E 135°14'1 1.0
2014-Aug-29 07:33N 34°39' E 135°15'2 1.8
2014-Aug-29 06:33N 34°41' E 135°16'3 2.8
2014-Aug-29 05:33N 34°41' E 135°13'1 1.3
2014-Aug-29 04:33N 34°40' E 135°12'1 0.7
2014-Aug-29 03:33N 34°41' E 135°12'0 0.0
2014-Aug-29 02:33N 34°41' E 135°12'0 0.0
2014-Aug-29 01:33N 34°41' E 135°12'0 0.0
2014-Aug-29 00:33N 34°41' E 135°12'2 2.2
2014-Aug-28 23:33N 34°39' E 135°15'1 1.1
2014-Aug-28 22:33N 34°40' E 135°14'1 1.4
2014-Aug-28 21:33N 34°39' E 135°15'3 2.8
2014-Aug-28 20:33N 34°41' E 135°12'2 0.1
2014-Aug-27 15:20N 34°40' E 135°14'0 0.5
2014-Aug-27 14:33N 34°40' E 135°14'0 0.0
2014-Aug-27 13:33N 34°40' E 135°14'0 0.0
2014-Aug-27 12:33N 34°40' E 135°14'0 0.3
2014-Aug-27 11:33N 34°39' E 135°15'1 1.3
2014-Aug-27 10:33N 34°40' E 135°13'1 1.5
2014-Aug-27 09:33N 34°40' E 135°15'2 2.3
2014-Aug-27 08:33N 34°41' E 135°12'0 0.0
2014-Aug-27 07:33N 34°41' E 135°12'0 0.0
2014-Aug-27 06:33N 34°41' E 135°12'0 0.0
2014-Aug-27 05:33N 34°41' E 135°12'0 0.0
2014-Aug-27 04:33N 34°41' E 135°12'1 1.0
2014-Aug-27 03:33N 34°40' E 135°13'1 1.2
2014-Aug-27 02:33N 34°40' E 135°15'0 0.0
2014-Aug-27 01:33N 34°40' E 135°15'0 0.0
2014-Aug-27 00:34N 34°40' E 135°15'0 0.0
2014-Aug-26 23:34N 34°40' E 135°15'3 2.8
2014-Aug-26 22:33N 34°42' E 135°18'1 0.6
2014-Aug-26 21:33N 34°42' E 135°17'4 4.1
2014-Aug-26 20:34N 34°41' E 135°12'0 0.0
2014-Aug-25 06:33N 34°41' E 135°12'0 0.0
2014-Aug-25 05:33N 34°41' E 135°12'0 0.0
2014-Aug-25 04:33N 34°41' E 135°12'0 0.0
2014-Aug-25 03:33N 34°41' E 135°12'0 0.0
2014-Aug-25 02:29N 34°41' E 135°12'0 0.0
2014-Aug-25 01:33N 34°41' E 135°12'0 0.0
2014-Aug-25 00:33N 34°41' E 135°12'3 3.3
2014-Aug-24 23:33N 34°42' E 135°16'1 1.0
2014-Aug-24 22:33N 34°42' E 135°15'2 1.9
2014-Aug-24 21:33N 34°41' E 135°13'0 0.4
2014-Aug-24 20:33N 34°41' E 135°12'0 0.0
2014-Aug-24 07:33N 34°41' E 135°12'3 2.6
2014-Aug-24 06:33N 34°41' E 135°15'1 0.7
2014-Aug-24 05:33N 34°41' E 135°15'2 1.7
2014-Aug-24 04:33N 34°41' E 135°12'0 0.0
2014-Aug-24 03:33N 34°41' E 135°12'0 0.0
2014-Aug-24 02:33N 34°41' E 135°12'0 0.0
2014-Aug-24 01:33N 34°41' E 135°12'3 2.8
2014-Aug-24 00:33N 34°41' E 135°16'2 1.6
2014-Aug-23 23:33N 34°39' E 135°17'4 3.8
2014-Aug-23 22:33N 34°41' E 135°12'0 0.1
2014-Aug-23 21:33N 34°41' E 135°12'12 0.7
2014-Aug-23 03:33N 34°38' E 135°27'5 5.2
2014-Aug-23 02:34N 34°35' E 135°22'6 4.5
2014-Aug-23 01:13N 34°38' E 135°28'0 0.0
2014-Aug-23 00:33N 34°38' E 135°28'  
Track history (hours):
 
Tides and Currents Weather Stations Pressure Air Temp Water Temp Dewpoint Dewpoint Depression Visibility Wind Speed Wind Dir Waves Ship Positions

Hakuhomaru

Last reported at 2014-Aug-31 05:33 UTC. Time now 2014-Sep-01 11:19 UTC.
Position N 34°41' E 135°12'.

Length 38 m; draft 3.3 m.

Type: Tug. MMSI: 431401584.

Date/timePositionNaut miles runAvg speedWind from/ knotsBaromVisibWave heightAir tempDewpointWater temp
2014-Aug-31 05:33N 34°41' E 135°12'0 0.0
2014-Aug-31 04:33N 34°41' E 135°12'0 0.0
2014-Aug-31 03:33N 34°41' E 135°12'0 0.0
2014-Aug-31 02:33N 34°41' E 135°12'0 0.0
2014-Aug-31 01:33N 34°41' E 135°12'2 2.4
2014-Aug-31 00:34N 34°39' E 135°15'2 1.6
2014-Aug-30 23:33N 34°39' E 135°17'4 3.9
2014-Aug-30 22:33N 34°41' E 135°12'0 0.1
2014-Aug-30 21:33N 34°41' E 135°12'2 0.2
2014-Aug-30 09:33N 34°41' E 135°15'0 0.2
2014-Aug-30 08:33N 34°41' E 135°14'0 0.0
2014-Aug-30 07:33N 34°41' E 135°14'0 0.0
2014-Aug-30 06:33N 34°41' E 135°14'1 1.4
2014-Aug-30 05:33N 34°40' E 135°14'2 1.7
2014-Aug-30 04:33N 34°41' E 135°12'0 0.0
2014-Aug-30 03:33N 34°41' E 135°12'0 0.0
2014-Aug-30 02:33N 34°41' E 135°12'0 0.0
2014-Aug-30 01:33N 34°41' E 135°12'0 0.0
2014-Aug-30 00:33N 34°41' E 135°12'0 0.0
2014-Aug-29 23:33N 34°41' E 135°12'4 3.9
2014-Aug-29 22:33N 34°41' E 135°17'3 2.5
2014-Aug-29 21:33N 34°41' E 135°14'1 1.4
2014-Aug-29 20:33N 34°41' E 135°12'0 0.0
2014-Aug-29 09:16N 34°41' E 135°12'2 2.2
2014-Aug-29 08:33N 34°40' E 135°14'1 1.0
2014-Aug-29 07:33N 34°39' E 135°15'2 1.8
2014-Aug-29 06:33N 34°41' E 135°16'3 2.8
2014-Aug-29 05:33N 34°41' E 135°13'1 1.3
2014-Aug-29 04:33N 34°40' E 135°12'1 0.7
2014-Aug-29 03:33N 34°41' E 135°12'0 0.0
2014-Aug-29 02:33N 34°41' E 135°12'0 0.0
2014-Aug-29 01:33N 34°41' E 135°12'0 0.0
2014-Aug-29 00:33N 34°41' E 135°12'2 2.2
2014-Aug-28 23:33N 34°39' E 135°15'1 1.1
2014-Aug-28 22:33N 34°40' E 135°14'1 1.4
2014-Aug-28 21:33N 34°39' E 135°15'3 2.8
2014-Aug-28 20:33N 34°41' E 135°12'2 0.1
2014-Aug-27 15:20N 34°40' E 135°14'0 0.5
2014-Aug-27 14:33N 34°40' E 135°14'0 0.0
2014-Aug-27 13:33N 34°40' E 135°14'0 0.0
2014-Aug-27 12:33N 34°40' E 135°14'0 0.3
2014-Aug-27 11:33N 34°39' E 135°15'1 1.3
2014-Aug-27 10:33N 34°40' E 135°13'1 1.5
2014-Aug-27 09:33N 34°40' E 135°15'2 2.3
2014-Aug-27 08:33N 34°41' E 135°12'0 0.0
2014-Aug-27 07:33N 34°41' E 135°12'0 0.0
2014-Aug-27 06:33N 34°41' E 135°12'0 0.0
2014-Aug-27 05:33N 34°41' E 135°12'0 0.0
2014-Aug-27 04:33N 34°41' E 135°12'1 1.0
2014-Aug-27 03:33N 34°40' E 135°13'1 1.2
2014-Aug-27 02:33N 34°40' E 135°15'0 0.0
2014-Aug-27 01:33N 34°40' E 135°15'0 0.0
2014-Aug-27 00:34N 34°40' E 135°15'0 0.0
2014-Aug-26 23:34N 34°40' E 135°15'3 2.8
2014-Aug-26 22:33N 34°42' E 135°18'1 0.6
2014-Aug-26 21:33N 34°42' E 135°17'4 4.1
2014-Aug-26 20:34N 34°41' E 135°12'0 0.0
2014-Aug-25 06:33N 34°41' E 135°12'0 0.0
2014-Aug-25 05:33N 34°41' E 135°12'0 0.0
2014-Aug-25 04:33N 34°41' E 135°12'0 0.0
2014-Aug-25 03:33N 34°41' E 135°12'0 0.0
2014-Aug-25 02:29N 34°41' E 135°12'0 0.0
2014-Aug-25 01:33N 34°41' E 135°12'0 0.0
2014-Aug-25 00:33N 34°41' E 135°12'3 3.3
2014-Aug-24 23:33N 34°42' E 135°16'1 1.0
2014-Aug-24 22:33N 34°42' E 135°15'2 1.9
2014-Aug-24 21:33N 34°41' E 135°13'0 0.4
2014-Aug-24 20:33N 34°41' E 135°12'0 0.0
2014-Aug-24 07:33N 34°41' E 135°12'3 2.6
2014-Aug-24 06:33N 34°41' E 135°15'1 0.7
2014-Aug-24 05:33N 34°41' E 135°15'2 1.7
2014-Aug-24 04:33N 34°41' E 135°12'0 0.0
2014-Aug-24 03:33N 34°41' E 135°12'0 0.0
2014-Aug-24 02:33N 34°41' E 135°12'0 0.0
2014-Aug-24 01:33N 34°41' E 135°12'3 2.8
2014-Aug-24 00:33N 34°41' E 135°16'2 1.6
2014-Aug-23 23:33N 34°39' E 135°17'4 3.8
2014-Aug-23 22:33N 34°41' E 135°12'0 0.1
2014-Aug-23 21:33N 34°41' E 135°12'12 0.7
2014-Aug-23 03:33N 34°38' E 135°27'5 5.2
2014-Aug-23 02:34N 34°35' E 135°22'6 4.5
2014-Aug-23 01:13N 34°38' E 135°28'0 0.0
2014-Aug-23 00:33N 34°38' E 135°28'  

Dump ship's entire track history